sensor_id;sensor_type;location;lat;lon;timestamp;P1;durP1;ratioP1;P2;durP2;ratioP2
1759;SDS011;877;46.266;20.062;2023-03-11T00:01:36;11.67;;;7.83;;
1759;SDS011;877;46.266;20.062;2023-03-11T00:09:58;11.17;;;7.77;;
1759;SDS011;877;46.266;20.062;2023-03-11T00:12:37;10.67;;;7.27;;
1759;SDS011;877;46.266;20.062;2023-03-11T00:18:06;11.20;;;8.17;;
1759;SDS011;877;46.266;20.062;2023-03-11T00:20:34;11.63;;;7.13;;
1759;SDS011;877;46.266;20.062;2023-03-11T00:26:15;10.90;;;6.80;;
1759;SDS011;877;46.266;20.062;2023-03-11T00:28:54;10.03;;;6.43;;
1759;SDS011;877;46.266;20.062;2023-03-11T00:34:11;10.23;;;6.30;;
1759;SDS011;877;46.266;20.062;2023-03-11T00:36:38;10.33;;;7.60;;
1759;SDS011;877;46.266;20.062;2023-03-11T00:39:08;11.03;;;7.00;;
1759;SDS011;877;46.266;20.062;2023-03-11T00:41:37;10.67;;;6.67;;
1759;SDS011;877;46.266;20.062;2023-03-11T00:44:04;8.90;;;6.27;;
1759;SDS011;877;46.266;20.062;2023-03-11T00:49:01;11.00;;;7.10;;
1759;SDS011;877;46.266;20.062;2023-03-11T00:51:28;11.17;;;8.27;;
1759;SDS011;877;46.266;20.062;2023-03-11T00:56:45;7.10;;;5.00;;
1759;SDS011;877;46.266;20.062;2023-03-11T00:59:12;6.77;;;4.90;;
1759;SDS011;877;46.266;20.062;2023-03-11T01:06:49;7.10;;;4.53;;
1759;SDS011;877;46.266;20.062;2023-03-11T01:12:17;8.10;;;3.90;;
1759;SDS011;877;46.266;20.062;2023-03-11T01:14:59;6.33;;;4.03;;
1759;SDS011;877;46.266;20.062;2023-03-11T01:20:16;6.67;;;4.00;;
1759;SDS011;877;46.266;20.062;2023-03-11T01:22:43;6.87;;;4.10;;
1759;SDS011;877;46.266;20.062;2023-03-11T01:28:05;6.30;;;3.80;;
1759;SDS011;877;46.266;20.062;2023-03-11T01:30:32;5.77;;;3.77;;
1759;SDS011;877;46.266;20.062;2023-03-11T01:33:01;4.27;;;2.93;;
1759;SDS011;877;46.266;20.062;2023-03-11T01:35:43;5.80;;;3.53;;
1759;SDS011;877;46.266;20.062;2023-03-11T01:38:25;4.90;;;2.80;;
1759;SDS011;877;46.266;20.062;2023-03-11T01:40:52;5.40;;;2.73;;
1759;SDS011;877;46.266;20.062;2023-03-11T01:51:32;4.13;;;2.40;;
1759;SDS011;877;46.266;20.062;2023-03-11T01:56:59;6.37;;;2.50;;
1759;SDS011;877;46.266;20.062;2023-03-11T01:59:35;5.20;;;2.60;;
1759;SDS011;877;46.266;20.062;2023-03-11T02:02:12;4.67;;;2.67;;
1759;SDS011;877;46.266;20.062;2023-03-11T02:07:40;6.63;;;2.67;;
1759;SDS011;877;46.266;20.062;2023-03-11T02:10:13;5.10;;;2.80;;
1759;SDS011;877;46.266;20.062;2023-03-11T02:12:48;5.10;;;2.97;;
1759;SDS011;877;46.266;20.062;2023-03-11T02:15:16;7.47;;;3.20;;
1759;SDS011;877;46.266;20.062;2023-03-11T02:22:58;5.33;;;3.10;;
1759;SDS011;877;46.266;20.062;2023-03-11T02:28:19;5.70;;;3.03;;
1759;SDS011;877;46.266;20.062;2023-03-11T02:30:47;7.03;;;3.13;;
1759;SDS011;877;46.266;20.062;2023-03-11T02:33:18;5.30;;;2.87;;
1759;SDS011;877;46.266;20.062;2023-03-11T02:35:51;6.13;;;2.70;;
1759;SDS011;877;46.266;20.062;2023-03-11T02:38:31;5.60;;;2.90;;
1759;SDS011;877;46.266;20.062;2023-03-11T02:40:59;5.80;;;3.30;;
1759;SDS011;877;46.266;20.062;2023-03-11T02:43:36;4.43;;;2.17;;
1759;SDS011;877;46.266;20.062;2023-03-11T02:46:16;5.33;;;2.70;;
1759;SDS011;877;46.266;20.062;2023-03-11T02:48:55;13.93;;;2.50;;
1759;SDS011;877;46.266;20.062;2023-03-11T02:51:22;2.93;;;1.90;;
1759;SDS011;877;46.266;20.062;2023-03-11T02:53:56;3.13;;;1.70;;
1759;SDS011;877;46.266;20.062;2023-03-11T02:56:22;3.90;;;1.70;;
1759;SDS011;877;46.266;20.062;2023-03-11T03:03:56;3.80;;;1.47;;
1759;SDS011;877;46.266;20.062;2023-03-11T03:06:32;3.07;;;1.50;;
1759;SDS011;877;46.266;20.062;2023-03-11T03:09:09;3.00;;;1.40;;
1759;SDS011;877;46.266;20.062;2023-03-11T03:11:36;2.23;;;1.10;;
1759;SDS011;877;46.266;20.062;2023-03-11T03:14:09;3.23;;;1.23;;
1759;SDS011;877;46.266;20.062;2023-03-11T03:16:36;2.80;;;1.00;;
1759;SDS011;877;46.266;20.062;2023-03-11T03:19:04;2.67;;;1.00;;
1759;SDS011;877;46.266;20.062;2023-03-11T03:21:30;2.70;;;1.00;;
1759;SDS011;877;46.266;20.062;2023-03-11T03:23:56;2.10;;;1.00;;
1759;SDS011;877;46.266;20.062;2023-03-11T03:28:58;2.63;;;1.10;;
1759;SDS011;877;46.266;20.062;2023-03-11T03:31:25;2.70;;;1.33;;
1759;SDS011;877;46.266;20.062;2023-03-11T03:33:52;2.50;;;1.23;;
1759;SDS011;877;46.266;20.062;2023-03-11T03:39:03;2.20;;;0.80;;
1759;SDS011;877;46.266;20.062;2023-03-11T03:41:31;2.50;;;0.90;;
1759;SDS011;877;46.266;20.062;2023-03-11T03:43:58;2.40;;;1.00;;
1759;SDS011;877;46.266;20.062;2023-03-11T03:49:16;3.80;;;1.00;;
1759;SDS011;877;46.266;20.062;2023-03-11T03:51:43;2.00;;;0.90;;
1759;SDS011;877;46.266;20.062;2023-03-11T03:54:13;3.40;;;1.13;;
1759;SDS011;877;46.266;20.062;2023-03-11T03:56:49;2.30;;;1.00;;
1759;SDS011;877;46.266;20.062;2023-03-11T04:01:46;5.27;;;0.80;;
1759;SDS011;877;46.266;20.062;2023-03-11T04:04:12;3.60;;;1.10;;
1759;SDS011;877;46.266;20.062;2023-03-11T04:09:31;3.47;;;1.20;;
1759;SDS011;877;46.266;20.062;2023-03-11T04:11:59;2.53;;;0.80;;
1759;SDS011;877;46.266;20.062;2023-03-11T04:14:27;2.17;;;0.87;;
1759;SDS011;877;46.266;20.062;2023-03-11T04:19:30;3.57;;;1.10;;
1759;SDS011;877;46.266;20.062;2023-03-11T04:21:56;4.80;;;1.10;;
1759;SDS011;877;46.266;20.062;2023-03-11T04:27:17;2.87;;;1.00;;
1759;SDS011;877;46.266;20.062;2023-03-11T04:29:43;4.43;;;1.70;;
1759;SDS011;877;46.266;20.062;2023-03-11T04:32:19;3.07;;;1.30;;
1759;SDS011;877;46.266;20.062;2023-03-11T04:34:47;4.97;;;1.30;;
1759;SDS011;877;46.266;20.062;2023-03-11T04:37:20;2.40;;;1.07;;
1759;SDS011;877;46.266;20.062;2023-03-11T04:39:46;3.47;;;1.13;;
1759;SDS011;877;46.266;20.062;2023-03-11T04:42:13;3.00;;;1.20;;
1759;SDS011;877;46.266;20.062;2023-03-11T04:44:46;3.03;;;1.30;;
1759;SDS011;877;46.266;20.062;2023-03-11T04:50:25;2.20;;;1.00;;
1759;SDS011;877;46.266;20.062;2023-03-11T04:52:52;3.03;;;1.43;;
1759;SDS011;877;46.266;20.062;2023-03-11T04:55:22;6.23;;;1.50;;
1759;SDS011;877;46.266;20.062;2023-03-11T04:57:49;2.83;;;1.53;;
1759;SDS011;877;46.266;20.062;2023-03-11T05:03:16;2.53;;;1.10;;
1759;SDS011;877;46.266;20.062;2023-03-11T05:05:44;3.03;;;1.30;;
1759;SDS011;877;46.266;20.062;2023-03-11T05:08:10;3.53;;;1.10;;
1759;SDS011;877;46.266;20.062;2023-03-11T05:16:24;4.07;;;1.10;;
1759;SDS011;877;46.266;20.062;2023-03-11T05:18:52;2.70;;;1.00;;
1759;SDS011;877;46.266;20.062;2023-03-11T05:21:18;2.70;;;1.00;;
1759;SDS011;877;46.266;20.062;2023-03-11T05:23:45;2.40;;;1.13;;
1759;SDS011;877;46.266;20.062;2023-03-11T05:26:17;6.70;;;1.40;;
1759;SDS011;877;46.266;20.062;2023-03-11T05:28:43;4.97;;;1.30;;
1759;SDS011;877;46.266;20.062;2023-03-11T05:36:20;6.67;;;2.10;;
1759;SDS011;877;46.266;20.062;2023-03-11T05:38:49;11.97;;;5.17;;
1759;SDS011;877;46.266;20.062;2023-03-11T05:41:34;7.13;;;2.50;;
1759;SDS011;877;46.266;20.062;2023-03-11T05:46:37;2.10;;;0.80;;
1759;SDS011;877;46.266;20.062;2023-03-11T05:49:16;2.47;;;1.02;;
1759;SDS011;877;46.266;20.062;2023-03-11T05:51:52;2.50;;;1.07;;
1759;SDS011;877;46.266;20.062;2023-03-11T05:56:54;2.50;;;1.10;;
1759;SDS011;877;46.266;20.062;2023-03-11T05:59:20;2.15;;;0.82;;
1759;SDS011;877;46.266;20.062;2023-03-11T06:06:58;3.88;;;1.30;;
1759;SDS011;877;46.266;20.062;2023-03-11T06:09:27;1.90;;;0.80;;
1759;SDS011;877;46.266;20.062;2023-03-11T06:14:34;4.13;;;0.90;;
1759;SDS011;877;46.266;20.062;2023-03-11T06:17:04;2.67;;;1.10;;
1759;SDS011;877;46.266;20.062;2023-03-11T06:19:31;3.83;;;1.48;;
1759;SDS011;877;46.266;20.062;2023-03-11T06:21:57;7.25;;;1.05;;
1759;SDS011;877;46.266;20.062;2023-03-11T06:36:19;5.32;;;1.67;;
1759;SDS011;877;46.266;20.062;2023-03-11T06:38:46;9.20;;;2.03;;
1759;SDS011;877;46.266;20.062;2023-03-11T06:41:22;8.85;;;1.90;;
1759;SDS011;877;46.266;20.062;2023-03-11T06:43:49;9.30;;;1.15;;
1759;SDS011;877;46.266;20.062;2023-03-11T06:46:22;7.97;;;1.77;;
1759;SDS011;877;46.266;20.062;2023-03-11T06:48:49;8.25;;;1.55;;
1759;SDS011;877;46.266;20.062;2023-03-11T06:51:24;8.55;;;1.75;;
1759;SDS011;877;46.266;20.062;2023-03-11T06:53:51;10.80;;;2.53;;
1759;SDS011;877;46.266;20.062;2023-03-11T07:01:25;11.98;;;1.77;;
1759;SDS011;877;46.266;20.062;2023-03-11T07:06:24;8.63;;;2.00;;
1759;SDS011;877;46.266;20.062;2023-03-11T07:08:52;9.57;;;2.30;;
1759;SDS011;877;46.266;20.062;2023-03-11T07:16:38;15.45;;;1.75;;
1759;SDS011;877;46.266;20.062;2023-03-11T07:19:05;7.22;;;1.60;;
1759;SDS011;877;46.266;20.062;2023-03-11T07:21:31;4.75;;;1.58;;
1759;SDS011;877;46.266;20.062;2023-03-11T07:26:37;7.38;;;1.23;;
1759;SDS011;877;46.266;20.062;2023-03-11T07:29:04;7.85;;;1.27;;
1759;SDS011;877;46.266;20.062;2023-03-11T07:31:40;5.85;;;1.70;;
1759;SDS011;877;46.266;20.062;2023-03-11T07:34:14;13.07;;;2.17;;
1759;SDS011;877;46.266;20.062;2023-03-11T07:36:42;11.70;;;1.40;;
1759;SDS011;877;46.266;20.062;2023-03-11T07:39:12;4.57;;;1.48;;
1759;SDS011;877;46.266;20.062;2023-03-11T07:44:15;5.07;;;1.55;;
1759;SDS011;877;46.266;20.062;2023-03-11T07:46:43;12.93;;;2.00;;
1759;SDS011;877;46.266;20.062;2023-03-11T07:49:11;10.60;;;1.23;;
1759;SDS011;877;46.266;20.062;2023-03-11T07:51:38;7.68;;;1.50;;
1759;SDS011;877;46.266;20.062;2023-03-11T07:54:09;5.53;;;1.33;;
1759;SDS011;877;46.266;20.062;2023-03-11T07:56:36;11.63;;;1.55;;
1759;SDS011;877;46.266;20.062;2023-03-11T07:59:03;8.10;;;1.30;;
1759;SDS011;877;46.266;20.062;2023-03-11T08:01:29;10.25;;;1.40;;
1759;SDS011;877;46.266;20.062;2023-03-11T08:04:11;9.43;;;1.73;;
1759;SDS011;877;46.266;20.062;2023-03-11T08:09:10;9.75;;;2.55;;
1759;SDS011;877;46.266;20.062;2023-03-11T08:14:18;11.20;;;2.45;;
1759;SDS011;877;46.266;20.062;2023-03-11T08:16:45;11.23;;;2.33;;
1759;SDS011;877;46.266;20.062;2023-03-11T08:21:49;9.40;;;2.25;;
1759;SDS011;877;46.266;20.062;2023-03-11T08:24:22;10.32;;;1.80;;
1759;SDS011;877;46.266;20.062;2023-03-11T08:26:49;8.90;;;1.55;;
1759;SDS011;877;46.266;20.062;2023-03-11T08:29:16;5.82;;;2.40;;
1759;SDS011;877;46.266;20.062;2023-03-11T08:31:53;7.10;;;2.03;;
1759;SDS011;877;46.266;20.062;2023-03-11T08:37:00;5.50;;;1.60;;
1759;SDS011;877;46.266;20.062;2023-03-11T08:39:26;8.35;;;1.88;;
1759;SDS011;877;46.266;20.062;2023-03-11T08:41:52;11.05;;;2.20;;
1759;SDS011;877;46.266;20.062;2023-03-11T08:44:28;6.65;;;1.90;;
1759;SDS011;877;46.266;20.062;2023-03-11T08:46:55;5.13;;;1.85;;
1759;SDS011;877;46.266;20.062;2023-03-11T08:49:30;8.00;;;1.60;;
1759;SDS011;877;46.266;20.062;2023-03-11T08:54:25;5.93;;;4.13;;
1759;SDS011;877;46.266;20.062;2023-03-11T08:57:01;5.57;;;1.40;;
1759;SDS011;877;46.266;20.062;2023-03-11T08:59:35;4.30;;;2.75;;
1759;SDS011;877;46.266;20.062;2023-03-11T09:05:14;8.48;;;3.65;;
1759;SDS011;877;46.266;20.062;2023-03-11T09:13:10;3.85;;;0.90;;
1759;SDS011;877;46.266;20.062;2023-03-11T09:15:37;2.63;;;1.10;;
1759;SDS011;877;46.266;20.062;2023-03-11T09:18:11;15.32;;;7.68;;
1759;SDS011;877;46.266;20.062;2023-03-11T09:23:40;4.72;;;1.75;;
1759;SDS011;877;46.266;20.062;2023-03-11T09:26:08;4.95;;;2.55;;
1759;SDS011;877;46.266;20.062;2023-03-11T09:28:34;9.80;;;4.20;;
1759;SDS011;877;46.266;20.062;2023-03-11T09:31:03;11.10;;;5.40;;
1759;SDS011;877;46.266;20.062;2023-03-11T09:33:46;2.72;;;1.38;;
1759;SDS011;877;46.266;20.062;2023-03-11T09:36:18;15.52;;;3.55;;
1759;SDS011;877;46.266;20.062;2023-03-11T09:58:21;3.25;;;1.65;;
1759;SDS011;877;46.266;20.062;2023-03-11T10:01:01;6.90;;;4.93;;
1759;SDS011;877;46.266;20.062;2023-03-11T10:03:33;5.93;;;3.13;;
1759;SDS011;877;46.266;20.062;2023-03-11T10:16:42;2.55;;;1.33;;
1759;SDS011;877;46.266;20.062;2023-03-11T10:19:28;6.50;;;1.17;;
1759;SDS011;877;46.266;20.062;2023-03-11T10:22:06;8.07;;;1.60;;
1759;SDS011;877;46.266;20.062;2023-03-11T10:25:10;3.63;;;1.70;;
1759;SDS011;877;46.266;20.062;2023-03-11T10:27:29;4.80;;;1.30;;
1759;SDS011;877;46.266;20.062;2023-03-11T10:30:14;9.43;;;1.55;;
1759;SDS011;877;46.266;20.062;2023-03-11T10:32:48;11.35;;;4.63;;
1759;SDS011;877;46.266;20.062;2023-03-11T10:40:58;5.18;;;1.70;;
1759;SDS011;877;46.266;20.062;2023-03-11T10:43:36;5.38;;;1.55;;
1759;SDS011;877;46.266;20.062;2023-03-11T10:46:04;11.65;;;5.38;;
1759;SDS011;877;46.266;20.062;2023-03-11T10:48:34;4.05;;;2.40;;
1759;SDS011;877;46.266;20.062;2023-03-11T10:51:34;8.63;;;4.50;;
1759;SDS011;877;46.266;20.062;2023-03-11T10:54:01;3.83;;;2.03;;
1759;SDS011;877;46.266;20.062;2023-03-11T10:56:33;6.15;;;2.72;;
1759;SDS011;877;46.266;20.062;2023-03-11T10:59:44;6.45;;;1.50;;
1759;SDS011;877;46.266;20.062;2023-03-11T11:02:16;11.80;;;2.10;;
1759;SDS011;877;46.266;20.062;2023-03-11T11:04:46;7.28;;;2.60;;
1759;SDS011;877;46.266;20.062;2023-03-11T11:07:28;7.13;;;1.90;;
1759;SDS011;877;46.266;20.062;2023-03-11T11:17:51;8.03;;;1.53;;
1759;SDS011;877;46.266;20.062;2023-03-11T11:20:27;6.40;;;2.00;;
1759;SDS011;877;46.266;20.062;2023-03-11T11:33:27;10.05;;;1.83;;
1759;SDS011;877;46.266;20.062;2023-03-11T11:35:57;4.68;;;1.70;;
1759;SDS011;877;46.266;20.062;2023-03-11T11:41:04;8.02;;;2.13;;
1759;SDS011;877;46.266;20.062;2023-03-11T11:43:44;11.15;;;2.45;;
1759;SDS011;877;46.266;20.062;2023-03-11T11:46:32;5.25;;;2.25;;
1759;SDS011;877;46.266;20.062;2023-03-11T11:54:35;4.70;;;1.90;;
1759;SDS011;877;46.266;20.062;2023-03-11T11:57:12;6.10;;;2.50;;
1759;SDS011;877;46.266;20.062;2023-03-11T11:59:41;9.32;;;2.55;;
1759;SDS011;877;46.266;20.062;2023-03-11T12:11:05;7.97;;;2.40;;
1759;SDS011;877;46.266;20.062;2023-03-11T12:14:14;8.07;;;2.40;;
1759;SDS011;877;46.266;20.062;2023-03-11T12:30:19;5.47;;;1.60;;
1759;SDS011;877;46.266;20.062;2023-03-11T12:32:51;7.00;;;3.35;;
1759;SDS011;877;46.266;20.062;2023-03-11T12:35:29;8.40;;;1.73;;
1759;SDS011;877;46.266;20.062;2023-03-11T13:09:17;9.73;;;1.90;;
1759;SDS011;877;46.266;20.062;2023-03-11T13:11:45;7.70;;;1.47;;
1759;SDS011;877;46.266;20.062;2023-03-11T13:30:55;8.90;;;2.20;;
1759;SDS011;877;46.266;20.062;2023-03-11T13:34:23;6.60;;;1.90;;
1759;SDS011;877;46.266;20.062;2023-03-11T13:36:23;9.50;;;2.20;;
1759;SDS011;877;46.266;20.062;2023-03-11T13:41:42;6.90;;;2.37;;
1759;SDS011;877;46.266;20.062;2023-03-11T13:47:28;7.63;;;2.03;;
1759;SDS011;877;46.266;20.062;2023-03-11T13:52:42;10.20;;;3.23;;
1759;SDS011;877;46.266;20.062;2023-03-11T13:58:01;17.40;;;3.43;;
1759;SDS011;877;46.266;20.062;2023-03-11T14:00:53;16.87;;;5.03;;
1759;SDS011;877;46.266;20.062;2023-03-11T14:03:21;20.93;;;2.77;;
1759;SDS011;877;46.266;20.062;2023-03-11T14:05:57;15.57;;;4.80;;
1759;SDS011;877;46.266;20.062;2023-03-11T14:08:32;14.63;;;2.90;;
1759;SDS011;877;46.266;20.062;2023-03-11T14:10:59;20.47;;;3.90;;
1759;SDS011;877;46.266;20.062;2023-03-11T14:18:48;13.63;;;3.03;;
1759;SDS011;877;46.266;20.062;2023-03-11T14:21:26;14.60;;;2.00;;
1759;SDS011;877;46.266;20.062;2023-03-11T14:23:53;7.10;;;1.70;;
1759;SDS011;877;46.266;20.062;2023-03-11T14:29:17;9.20;;;1.73;;
1759;SDS011;877;46.266;20.062;2023-03-11T14:31:46;12.20;;;2.20;;
1759;SDS011;877;46.266;20.062;2023-03-11T14:34:22;16.77;;;1.77;;
1759;SDS011;877;46.266;20.062;2023-03-11T14:36:52;30.23;;;2.73;;
1759;SDS011;877;46.266;20.062;2023-03-11T14:39:24;12.17;;;2.63;;
1759;SDS011;877;46.266;20.062;2023-03-11T14:41:54;17.00;;;2.80;;
1759;SDS011;877;46.266;20.062;2023-03-11T14:44:22;30.00;;;3.27;;
1759;SDS011;877;46.266;20.062;2023-03-11T14:49:40;8.40;;;1.80;;
1759;SDS011;877;46.266;20.062;2023-03-11T14:52:40;13.40;;;2.40;;
1759;SDS011;877;46.266;20.062;2023-03-11T14:55:04;11.50;;;2.30;;
1759;SDS011;877;46.266;20.062;2023-03-11T14:57:35;6.90;;;1.50;;
1759;SDS011;877;46.266;20.062;2023-03-11T15:00:17;7.23;;;2.10;;
1759;SDS011;877;46.266;20.062;2023-03-11T15:03:07;17.97;;;6.13;;
1759;SDS011;877;46.266;20.062;2023-03-11T15:08:07;44.40;;;4.40;;
1759;SDS011;877;46.266;20.062;2023-03-11T15:13:25;27.75;;;4.45;;
1759;SDS011;877;46.266;20.062;2023-03-11T15:15:55;13.63;;;5.30;;
1759;SDS011;877;46.266;20.062;2023-03-11T15:18:26;17.63;;;2.70;;
1759;SDS011;877;46.266;20.062;2023-03-11T15:23:48;20.25;;;5.00;;
1759;SDS011;877;46.266;20.062;2023-03-11T15:26:20;40.00;;;6.50;;
1759;SDS011;877;46.266;20.062;2023-03-11T15:28:51;25.23;;;5.00;;
1759;SDS011;877;46.266;20.062;2023-03-11T15:33:47;40.10;;;5.13;;
1759;SDS011;877;46.266;20.062;2023-03-11T15:47:19;12.35;;;2.55;;
1759;SDS011;877;46.266;20.062;2023-03-11T15:49:47;11.30;;;1.73;;
1759;SDS011;877;46.266;20.062;2023-03-11T15:52:14;26.77;;;4.30;;
1759;SDS011;877;46.266;20.062;2023-03-11T15:54:48;10.50;;;3.37;;
1759;SDS011;877;46.266;20.062;2023-03-11T15:57:28;12.85;;;2.33;;
1759;SDS011;877;46.266;20.062;2023-03-11T16:00:03;10.80;;;1.85;;
1759;SDS011;877;46.266;20.062;2023-03-11T16:02:31;10.05;;;3.28;;
1759;SDS011;877;46.266;20.062;2023-03-11T16:07:57;7.40;;;2.20;;
1759;SDS011;877;46.266;20.062;2023-03-11T16:10:25;13.65;;;4.90;;
1759;SDS011;877;46.266;20.062;2023-03-11T16:12:55;21.60;;;6.55;;
1759;SDS011;877;46.266;20.062;2023-03-11T16:15:34;9.70;;;3.42;;
1759;SDS011;877;46.266;20.062;2023-03-11T16:18:07;19.15;;;3.60;;
1759;SDS011;877;46.266;20.062;2023-03-11T16:20:43;17.33;;;4.65;;
1759;SDS011;877;46.266;20.062;2023-03-11T16:25:50;17.23;;;3.88;;
1759;SDS011;877;46.266;20.062;2023-03-11T16:28:20;10.90;;;2.35;;
1759;SDS011;877;46.266;20.062;2023-03-11T16:31:01;6.20;;;2.75;;
1759;SDS011;877;46.266;20.062;2023-03-11T16:33:38;8.63;;;3.45;;
1759;SDS011;877;46.266;20.062;2023-03-11T16:36:14;9.23;;;3.25;;
1759;SDS011;877;46.266;20.062;2023-03-11T16:38:47;14.02;;;3.38;;
1759;SDS011;877;46.266;20.062;2023-03-11T16:41:19;9.60;;;3.42;;
1759;SDS011;877;46.266;20.062;2023-03-11T16:43:47;22.75;;;6.28;;
1759;SDS011;877;46.266;20.062;2023-03-11T16:48:57;13.00;;;3.00;;
1759;SDS011;877;46.266;20.062;2023-03-11T16:51:32;6.32;;;2.42;;
1759;SDS011;877;46.266;20.062;2023-03-11T16:56:47;6.95;;;3.30;;
1759;SDS011;877;46.266;20.062;2023-03-11T16:59:22;6.88;;;2.55;;
1759;SDS011;877;46.266;20.062;2023-03-11T17:01:49;7.80;;;2.00;;
1759;SDS011;877;46.266;20.062;2023-03-11T17:06:51;10.30;;;2.67;;
1759;SDS011;877;46.266;20.062;2023-03-11T17:09:17;8.95;;;2.75;;
1759;SDS011;877;46.266;20.062;2023-03-11T17:11:53;8.65;;;2.85;;
1759;SDS011;877;46.266;20.062;2023-03-11T17:17:01;8.68;;;1.83;;
1759;SDS011;877;46.266;20.062;2023-03-11T17:19:34;9.85;;;2.30;;
1759;SDS011;877;46.266;20.062;2023-03-11T17:22:00;6.03;;;2.25;;
1759;SDS011;877;46.266;20.062;2023-03-11T17:24:28;16.35;;;8.95;;
1759;SDS011;877;46.266;20.062;2023-03-11T17:26:55;31.48;;;11.52;;
1759;SDS011;877;46.266;20.062;2023-03-11T17:29:21;16.83;;;7.50;;
1759;SDS011;877;46.266;20.062;2023-03-11T17:31:47;18.27;;;10.10;;
1759;SDS011;877;46.266;20.062;2023-03-11T17:34:15;9.15;;;3.72;;
1759;SDS011;877;46.266;20.062;2023-03-11T17:36:47;10.98;;;6.53;;
1759;SDS011;877;46.266;20.062;2023-03-11T17:39:13;7.22;;;4.43;;
1759;SDS011;877;46.266;20.062;2023-03-11T17:41:41;15.63;;;7.10;;
1759;SDS011;877;46.266;20.062;2023-03-11T17:44:10;15.10;;;6.78;;
1759;SDS011;877;46.266;20.062;2023-03-11T17:46:38;17.60;;;7.85;;
1759;SDS011;877;46.266;20.062;2023-03-11T17:49:05;9.10;;;5.57;;
1759;SDS011;877;46.266;20.062;2023-03-11T17:51:40;12.90;;;6.25;;
1759;SDS011;877;46.266;20.062;2023-03-11T17:54:08;18.40;;;12.98;;
1759;SDS011;877;46.266;20.062;2023-03-11T17:56:49;10.05;;;6.65;;
1759;SDS011;877;46.266;20.062;2023-03-11T17:59:17;12.10;;;7.15;;
1759;SDS011;877;46.266;20.062;2023-03-11T18:01:44;5.50;;;2.58;;
1759;SDS011;877;46.266;20.062;2023-03-11T18:04:11;17.77;;;12.52;;
1759;SDS011;877;46.266;20.062;2023-03-11T18:06:38;9.48;;;4.43;;
1759;SDS011;877;46.266;20.062;2023-03-11T18:09:04;11.02;;;4.72;;
1759;SDS011;877;46.266;20.062;2023-03-11T18:11:31;5.18;;;3.13;;
1759;SDS011;877;46.266;20.062;2023-03-11T18:13:57;12.07;;;3.80;;
1759;SDS011;877;46.266;20.062;2023-03-11T18:16:24;5.68;;;3.05;;
1759;SDS011;877;46.266;20.062;2023-03-11T18:21:23;6.90;;;3.50;;
1759;SDS011;877;46.266;20.062;2023-03-11T18:23:52;5.15;;;3.75;;
1759;SDS011;877;46.266;20.062;2023-03-11T18:26:21;7.90;;;4.80;;
1759;SDS011;877;46.266;20.062;2023-03-11T18:28:51;6.40;;;2.42;;
1759;SDS011;877;46.266;20.062;2023-03-11T18:31:20;8.52;;;3.28;;
1759;SDS011;877;46.266;20.062;2023-03-11T18:34:02;5.95;;;2.60;;
1759;SDS011;877;46.266;20.062;2023-03-11T18:39:02;15.73;;;2.90;;
1759;SDS011;877;46.266;20.062;2023-03-11T18:41:35;4.38;;;2.92;;
1759;SDS011;877;46.266;20.062;2023-03-11T18:44:02;6.13;;;2.30;;
1759;SDS011;877;46.266;20.062;2023-03-11T18:46:30;4.63;;;2.40;;
1759;SDS011;877;46.266;20.062;2023-03-11T18:49:01;4.30;;;2.38;;
1759;SDS011;877;46.266;20.062;2023-03-11T18:51:30;5.15;;;2.45;;
1759;SDS011;877;46.266;20.062;2023-03-11T18:53:56;4.00;;;2.15;;
1759;SDS011;877;46.266;20.062;2023-03-11T18:56:23;5.90;;;2.75;;
1759;SDS011;877;46.266;20.062;2023-03-11T18:58:50;8.50;;;3.20;;
1759;SDS011;877;46.266;20.062;2023-03-11T19:01:19;7.65;;;3.75;;
1759;SDS011;877;46.266;20.062;2023-03-11T19:03:52;6.18;;;2.85;;
1759;SDS011;877;46.266;20.062;2023-03-11T19:06:21;5.45;;;2.70;;
1759;SDS011;877;46.266;20.062;2023-03-11T19:08:48;4.35;;;2.05;;
1759;SDS011;877;46.266;20.062;2023-03-11T19:11:17;8.60;;;4.07;;
1759;SDS011;877;46.266;20.062;2023-03-11T19:13:45;7.60;;;2.65;;
1759;SDS011;877;46.266;20.062;2023-03-11T19:16:11;6.97;;;2.75;;
1759;SDS011;877;46.266;20.062;2023-03-11T19:18:53;4.03;;;2.30;;
1759;SDS011;877;46.266;20.062;2023-03-11T19:21:20;5.25;;;2.45;;
1759;SDS011;877;46.266;20.062;2023-03-11T19:23:47;4.97;;;2.17;;
1759;SDS011;877;46.266;20.062;2023-03-11T19:26:29;5.07;;;2.55;;
1759;SDS011;877;46.266;20.062;2023-03-11T19:31:59;5.60;;;2.30;;
1759;SDS011;877;46.266;20.062;2023-03-11T19:34:25;5.55;;;2.47;;
1759;SDS011;877;46.266;20.062;2023-03-11T19:39:26;4.40;;;2.40;;
1759;SDS011;877;46.266;20.062;2023-03-11T19:41:52;3.63;;;2.50;;
1759;SDS011;877;46.266;20.062;2023-03-11T19:44:20;4.88;;;3.55;;
1759;SDS011;877;46.266;20.062;2023-03-11T19:46:48;4.70;;;2.90;;
1759;SDS011;877;46.266;20.062;2023-03-11T19:49:22;3.72;;;2.17;;
1759;SDS011;877;46.266;20.062;2023-03-11T19:51:49;5.13;;;2.55;;
1759;SDS011;877;46.266;20.062;2023-03-11T19:54:24;5.05;;;3.20;;
1759;SDS011;877;46.266;20.062;2023-03-11T19:56:56;6.75;;;3.65;;
1759;SDS011;877;46.266;20.062;2023-03-11T19:59:22;7.90;;;5.15;;
1759;SDS011;877;46.266;20.062;2023-03-11T20:01:54;6.93;;;4.20;;
1759;SDS011;877;46.266;20.062;2023-03-11T20:04:20;4.47;;;2.75;;
1759;SDS011;877;46.266;20.062;2023-03-11T20:06:46;3.97;;;2.95;;
1759;SDS011;877;46.266;20.062;2023-03-11T20:09:12;5.95;;;2.90;;
1759;SDS011;877;46.266;20.062;2023-03-11T20:11:41;6.45;;;3.40;;
1759;SDS011;877;46.266;20.062;2023-03-11T20:16:42;6.45;;;2.70;;
1759;SDS011;877;46.266;20.062;2023-03-11T20:19:08;10.90;;;4.82;;
1759;SDS011;877;46.266;20.062;2023-03-11T20:21:41;4.45;;;2.33;;
1759;SDS011;877;46.266;20.062;2023-03-11T20:24:09;3.70;;;2.20;;
1759;SDS011;877;46.266;20.062;2023-03-11T20:26:40;7.55;;;3.03;;
1759;SDS011;877;46.266;20.062;2023-03-11T20:29:08;6.50;;;2.50;;
1759;SDS011;877;46.266;20.062;2023-03-11T20:31:37;5.75;;;2.92;;
1759;SDS011;877;46.266;20.062;2023-03-11T20:34:04;5.32;;;2.13;;
1759;SDS011;877;46.266;20.062;2023-03-11T20:36:34;4.28;;;2.90;;
1759;SDS011;877;46.266;20.062;2023-03-11T20:39:02;5.15;;;2.55;;
1759;SDS011;877;46.266;20.062;2023-03-11T20:41:32;9.93;;;3.55;;
1759;SDS011;877;46.266;20.062;2023-03-11T20:44:02;5.18;;;3.58;;
1759;SDS011;877;46.266;20.062;2023-03-11T20:46:28;4.45;;;2.78;;
1759;SDS011;877;46.266;20.062;2023-03-11T20:48:55;5.53;;;3.50;;
1759;SDS011;877;46.266;20.062;2023-03-11T20:53:52;5.72;;;2.95;;
1759;SDS011;877;46.266;20.062;2023-03-11T20:56:23;4.43;;;2.75;;
1759;SDS011;877;46.266;20.062;2023-03-11T20:59:05;5.43;;;3.05;;
1759;SDS011;877;46.266;20.062;2023-03-11T21:01:32;5.93;;;3.45;;
1759;SDS011;877;46.266;20.062;2023-03-11T21:04:00;4.88;;;3.20;;
1759;SDS011;877;46.266;20.062;2023-03-11T21:06:33;6.07;;;3.50;;
1759;SDS011;877;46.266;20.062;2023-03-11T21:09:00;6.50;;;3.75;;
1759;SDS011;877;46.266;20.062;2023-03-11T21:11:40;8.27;;;5.57;;
1759;SDS011;877;46.266;20.062;2023-03-11T21:16:37;6.05;;;4.00;;
1759;SDS011;877;46.266;20.062;2023-03-11T21:19:07;8.43;;;5.15;;
1759;SDS011;877;46.266;20.062;2023-03-11T21:21:37;9.52;;;5.03;;
1759;SDS011;877;46.266;20.062;2023-03-11T21:24:04;4.78;;;3.20;;
1759;SDS011;877;46.266;20.062;2023-03-11T21:26:39;5.50;;;2.95;;
1759;SDS011;877;46.266;20.062;2023-03-11T21:31:44;5.30;;;3.35;;
1759;SDS011;877;46.266;20.062;2023-03-11T21:36:41;7.88;;;3.45;;
1759;SDS011;877;46.266;20.062;2023-03-11T21:39:08;6.22;;;3.80;;
1759;SDS011;877;46.266;20.062;2023-03-11T21:41:37;6.53;;;3.67;;
1759;SDS011;877;46.266;20.062;2023-03-11T21:44:03;5.97;;;3.60;;
1759;SDS011;877;46.266;20.062;2023-03-11T21:46:34;7.53;;;3.45;;
1759;SDS011;877;46.266;20.062;2023-03-11T21:49:10;6.40;;;3.35;;
1759;SDS011;877;46.266;20.062;2023-03-11T21:51:43;6.13;;;3.22;;
1759;SDS011;877;46.266;20.062;2023-03-11T21:54:15;5.15;;;3.75;;
1759;SDS011;877;46.266;20.062;2023-03-11T21:59:17;6.18;;;3.70;;